Time;durP1;ratioP1;P1;durP2;ratioP2;P2;SDS_P1;SDS_P2;PMS_P1;PMS_P2;Temp;Humidity;BMP_temperature;BMP_pressure;BME280_temperature;BME280_humidity;BME280_pressure;Samples;Min_cycle;Max_cycle;Signal;HPM_P1;HPM_P2
2021/04/28 00:00:09;;;;;;;0.50;0.50;;;10.20;99.90;;;;;;5062170;28;20205;-79
2021/04/28 00:02:35;;;;;;;0.63;0.30;;;10.20;99.90;;;;;;5063852;28;20685;-78
2021/04/28 00:05:04;;;;;;;0.23;0.10;;;10.10;99.90;;;;;;5067504;28;20196;-79
2021/04/28 00:07:30;;;;;;;0.20;0.20;;;10.10;99.90;;;;;;5089531;28;20267;-79
2021/04/28 00:09:55;;;;;;;0.30;0.30;;;10.00;99.90;;;;;;5074331;28;20342;-79
2021/04/28 00:12:21;;;;;;;0.23;0.23;;;10.00;99.90;;;;;;5062387;28;20260;-79
2021/04/28 00:14:47;;;;;;;0.20;0.20;;;9.90;99.90;;;;;;5071806;28;20184;-78
2021/04/28 00:17:13;;;;;;;0.10;0.10;;;9.90;99.90;;;;;;5082987;28;20188;-79
2021/04/28 00:19:39;;;;;;;0.10;0.10;;;9.80;99.90;;;;;;5057495;28;20307;-79
2021/04/28 00:22:04;;;;;;;0.40;0.30;;;9.80;99.90;;;;;;5065264;28;20275;-79
2021/04/28 00:24:30;;;;;;;0.50;0.50;;;9.80;99.90;;;;;;5068540;28;20235;-79
2021/04/28 00:26:55;;;;;;;0.23;0.23;;;9.70;99.90;;;;;;5069481;28;20282;-78
2021/04/28 00:29:21;;;;;;;0.97;0.87;;;9.70;99.90;;;;;;5059020;28;20641;-79
2021/04/28 00:31:47;;;;;;;0.20;0.10;;;9.70;99.90;;;;;;5080885;28;20267;-81
2021/04/28 00:34:12;;;;;;;0.20;0.20;;;9.70;99.90;;;;;;5054755;28;20181;-79
2021/04/28 00:36:38;;;;;;;0.20;0.20;;;9.70;99.90;;;;;;5062827;28;20291;-79
2021/04/28 00:39:04;;;;;;;0.10;0.10;;;9.60;99.90;;;;;;5076934;28;20176;-80
2021/04/28 00:41:30;;;;;;;0.20;0.20;;;9.60;99.90;;;;;;5080632;28;20209;-79
2021/04/28 00:43:55;;;;;;;0.40;0.40;;;9.50;99.90;;;;;;5063930;28;20276;-80
2021/04/28 00:46:21;;;;;;;0.07;0.07;;;9.50;99.90;;;;;;5058740;28;20192;-80
2021/04/28 00:48:47;;;;;;;0.40;0.23;;;9.50;99.90;;;;;;5078782;28;20208;-80
2021/04/28 00:51:12;;;;;;;0.20;0.20;;;9.40;99.90;;;;;;5082351;28;20212;-79
2021/04/28 00:53:38;;;;;;;0.10;0.10;;;9.50;99.90;;;;;;5082331;28;20180;-80
2021/04/28 00:56:04;;;;;;;0.30;0.30;;;9.40;99.90;;;;;;5085282;28;20265;-80
2021/04/28 00:58:29;;;;;;;1.03;0.77;;;9.40;99.90;;;;;;5067562;28;20181;-80
2021/04/28 01:00:56;;;;;;;0.10;0.10;;;9.50;99.90;;;;;;5069110;28;20256;-80
2021/04/28 01:03:26;;;;;;;0.20;0.20;;;9.50;99.90;;;;;;5079809;28;20189;-79
2021/04/28 01:06:04;;;;;;;0.10;0.10;;;9.50;99.90;;;;;;5058056;28;20276;-80
2021/04/28 01:08:30;;;;;;;0.10;0.10;;;9.40;99.90;;;;;;5059740;28;20672;-79
2021/04/28 01:10:57;;;;;;;0.20;0.20;;;9.40;99.90;;;;;;5075876;28;20737;-79
2021/04/28 01:13:23;;;;;;;0.10;0.10;;;9.30;99.90;;;;;;5071377;28;20187;-80
2021/04/28 01:15:49;;;;;;;0.13;0.13;;;9.30;99.90;;;;;;5070477;28;20189;-80
2021/04/28 01:18:17;;;;;;;0.20;0.20;;;9.30;99.90;;;;;;5088048;28;20678;-80
2021/04/28 01:20:43;;;;;;;0.30;0.30;;;9.30;99.90;;;;;;5056889;28;20223;-80
2021/04/28 01:23:11;;;;;;;0.10;0.10;;;9.20;99.90;;;;;;5061159;28;20187;-80
2021/04/28 01:25:38;;;;;;;0.60;0.43;;;9.10;99.90;;;;;;5068967;28;20284;-80
2021/04/28 01:28:21;;;;;;;0.20;0.20;;;9.00;99.90;;;;;;5093804;28;20210;-79
2021/04/28 01:30:55;;;;;;;0.47;0.47;;;9.00;99.90;;;;;;5078355;28;20214;-79
2021/04/28 01:33:28;;;;;;;0.13;0.13;;;9.00;99.90;;;;;;5073863;28;20179;-80
2021/04/28 01:35:57;;;;;;;0.37;0.37;;;8.90;99.90;;;;;;5062317;28;20271;-79
2021/04/28 01:38:25;;;;;;;0.10;0.10;;;8.80;99.90;;;;;;5068924;28;20180;-82
2021/04/28 01:40:51;;;;;;;0.53;0.27;;;8.70;99.90;;;;;;5082165;28;20219;-82
2021/04/28 01:43:18;;;;;;;0.23;0.23;;;8.60;99.90;;;;;;5089320;28;20674;-82
2021/04/28 01:45:48;;;;;;;0.10;0.10;;;8.60;99.90;;;;;;5087592;28;20182;-80
2021/04/28 01:48:15;;;;;;;0.10;0.10;;;8.60;99.90;;;;;;5078095;28;20805;-80
2021/04/28 01:50:41;;;;;;;0.13;0.13;;;8.60;99.90;;;;;;5070172;28;20271;-79
2021/04/28 01:53:07;;;;;;;0.97;0.97;;;8.60;99.90;;;;;;5074554;28;20175;-79
2021/04/28 01:55:33;;;;;;;0.23;0.23;;;8.70;99.90;;;;;;5061142;28;20558;-79
2021/04/28 01:58:02;;;;;;;0.20;0.20;;;8.60;99.90;;;;;;5057058;28;20185;-80
2021/04/28 02:00:28;;;;;;;0.10;0.10;;;8.60;99.90;;;;;;5071658;28;20211;-80
2021/04/28 02:02:54;;;;;;;0.23;0.13;;;8.60;99.90;;;;;;5078465;28;20188;-79
2021/04/28 02:05:21;;;;;;;0.50;0.33;;;8.50;99.90;;;;;;5058631;28;20675;-79
2021/04/28 02:07:47;;;;;;;0.10;0.10;;;8.50;99.90;;;;;;5076262;28;20191;-79
2021/04/28 02:10:14;;;;;;;0.30;0.20;;;8.40;99.90;;;;;;5075038;28;20229;-79
2021/04/28 02:12:40;;;;;;;1.33;0.97;;;8.30;99.90;;;;;;5072072;28;20221;-80
2021/04/28 02:15:09;;;;;;;0.30;0.30;;;8.30;99.90;;;;;;5061068;28;20184;-80
2021/04/28 02:17:36;;;;;;;0.20;0.20;;;8.20;99.90;;;;;;5062492;28;20191;-80
2021/04/28 02:20:05;;;;;;;0.17;0.17;;;8.20;99.90;;;;;;5056480;28;20690;-80
2021/04/28 02:22:32;;;;;;;0.50;0.47;;;8.20;99.90;;;;;;5064931;28;20180;-80
2021/04/28 02:24:57;;;;;;;0.10;0.10;;;8.10;99.90;;;;;;5056176;28;20237;-79
2021/04/28 02:27:23;;;;;;;0.10;0.10;;;8.20;99.90;;;;;;5081852;28;20179;-79
2021/04/28 02:29:49;;;;;;;0.17;0.17;;;8.10;99.90;;;;;;5076098;28;20760;-80
2021/04/28 02:32:15;;;;;;;0.40;0.37;;;8.10;99.90;;;;;;5061981;28;20183;-80
2021/04/28 02:34:40;;;;;;;0.10;0.10;;;8.10;99.90;;;;;;5066431;28;20196;-79
2021/04/28 02:37:07;;;;;;;0.10;0.10;;;8.10;99.90;;;;;;5077984;28;20226;-79
2021/04/28 02:39:41;;;;;;;0.47;0.30;;;8.10;99.90;;;;;;5075579;28;20277;-78
2021/04/28 02:42:08;;;;;;;0.00;0.00;;;8.00;99.90;;;;;;5083568;28;20226;-80
2021/04/28 02:44:36;;;;;;;0.10;0.10;;;8.00;99.90;;;;;;5074982;28;20647;-79
2021/04/28 02:47:04;;;;;;;0.43;0.43;;;8.00;99.90;;;;;;5075841;28;20280;-79
2021/04/28 02:49:31;;;;;;;0.20;0.20;;;8.00;99.90;;;;;;5074603;28;20556;-80
2021/04/28 02:51:58;;;;;;;0.20;0.20;;;7.90;99.90;;;;;;5062892;28;20573;-80
2021/04/28 02:54:23;;;;;;;0.10;0.10;;;7.90;99.90;;;;;;5081974;28;20225;-80
2021/04/28 02:56:53;;;;;;;0.20;0.20;;;7.90;99.90;;;;;;5063825;28;20321;-80
2021/04/28 02:59:20;;;;;;;0.13;0.13;;;8.00;99.90;;;;;;5060609;28;20710;-80
2021/04/28 03:01:48;;;;;;;0.23;0.23;;;8.00;99.90;;;;;;5090925;28;20602;-80
2021/04/28 03:04:16;;;;;;;0.20;0.20;;;8.00;99.90;;;;;;5085406;28;20223;-80
2021/04/28 03:06:41;;;;;;;0.20;0.20;;;7.90;99.90;;;;;;5065591;28;20190;-80
2021/04/28 03:09:07;;;;;;;0.23;0.13;;;7.90;99.90;;;;;;5071034;28;20214;-79
2021/04/28 03:11:36;;;;;;;0.30;0.30;;;7.90;99.90;;;;;;5071384;28;20240;-79
2021/04/28 03:14:02;;;;;;;0.10;0.10;;;7.80;99.90;;;;;;5065377;28;20196;-80
2021/04/28 03:16:28;;;;;;;0.17;0.10;;;7.80;99.90;;;;;;5073915;28;20751;-80
2021/04/28 03:18:54;;;;;;;0.20;0.20;;;7.70;99.90;;;;;;5083487;28;20199;-80
2021/04/28 03:21:24;;;;;;;0.00;0.00;;;7.70;99.90;;;;;;5073469;28;20323;-80
2021/04/28 03:23:50;;;;;;;0.50;0.50;;;7.70;99.90;;;;;;5062323;28;20188;-79
2021/04/28 03:26:16;;;;;;;0.10;0.10;;;7.80;99.90;;;;;;5055464;28;20197;-80
2021/04/28 03:28:41;;;;;;;1.43;0.33;;;7.90;99.90;;;;;;5084569;28;20270;-80
2021/04/28 03:31:07;;;;;;;0.23;0.20;;;7.80;99.90;;;;;;5072347;28;20206;-80
2021/04/28 03:33:32;;;;;;;0.10;0.10;;;7.90;99.90;;;;;;5064655;28;20197;-79
2021/04/28 03:35:58;;;;;;;0.17;0.17;;;7.90;99.90;;;;;;5059910;28;20210;-80
2021/04/28 03:38:24;;;;;;;0.10;0.10;;;7.90;99.90;;;;;;5089445;28;20191;-80
2021/04/28 03:40:49;;;;;;;0.77;0.77;;;7.90;99.90;;;;;;5083407;28;20571;-79
2021/04/28 03:43:15;;;;;;;0.17;0.17;;;8.00;99.90;;;;;;5057218;28;20224;-80
2021/04/28 03:45:40;;;;;;;0.20;0.20;;;7.90;99.90;;;;;;5062042;28;20721;-80
2021/04/28 03:48:06;;;;;;;0.40;0.40;;;7.90;99.90;;;;;;5074341;28;20195;-79
2021/04/28 03:50:32;;;;;;;0.13;0.13;;;7.90;99.90;;;;;;5068010;28;20219;-79
2021/04/28 03:52:57;;;;;;;0.63;0.63;;;7.80;99.90;;;;;;5058826;28;20630;-79
2021/04/28 03:55:23;;;;;;;0.40;0.40;;;7.70;99.90;;;;;;5091308;28;20259;-82
2021/04/28 03:57:49;;;;;;;0.10;0.10;;;7.50;99.90;;;;;;5073584;28;20188;-82
2021/04/28 04:00:15;;;;;;;0.43;0.43;;;7.40;99.90;;;;;;5089266;28;20208;-80
2021/04/28 04:02:40;;;;;;;0.10;0.10;;;7.30;99.90;;;;;;5046892;28;20692;-80
2021/04/28 04:05:06;;;;;;;0.10;0.10;;;7.30;99.90;;;;;;5058071;28;20233;-81
2021/04/28 04:07:32;;;;;;;0.10;0.10;;;7.40;99.90;;;;;;5082135;28;20185;-81
2021/04/28 04:09:57;;;;;;;0.10;0.10;;;7.40;99.90;;;;;;5068278;28;20225;-80
2021/04/28 04:12:23;;;;;;;0.27;0.27;;;7.30;99.90;;;;;;5055251;28;20233;-80
2021/04/28 04:14:49;;;;;;;0.10;0.10;;;7.50;99.90;;;;;;5074936;28;20212;-80
2021/04/28 04:17:14;;;;;;;0.30;0.30;;;7.40;99.90;;;;;;5067757;28;20276;-80
2021/04/28 04:19:40;;;;;;;0.20;0.20;;;7.40;99.90;;;;;;5057269;28;20297;-80
2021/04/28 04:22:05;;;;;;;0.10;0.10;;;7.40;99.90;;;;;;5053790;28;20245;-81
2021/04/28 04:24:31;;;;;;;0.10;0.10;;;7.40;99.90;;;;;;5067461;28;20192;-79
2021/04/28 04:26:56;;;;;;;0.30;0.30;;;7.40;99.90;;;;;;5078269;28;20194;-80
2021/04/28 04:29:22;;;;;;;0.30;0.30;;;7.50;99.90;;;;;;5083998;28;20208;-80
2021/04/28 04:31:48;;;;;;;0.57;0.40;;;7.60;99.90;;;;;;5073661;28;20257;-80
2021/04/28 04:34:13;;;;;;;0.57;0.40;;;7.60;99.90;;;;;;5073595;28;20645;-80
2021/04/28 04:36:39;;;;;;;0.20;0.20;;;7.70;99.90;;;;;;5059246;28;20214;-80
2021/04/28 04:39:05;;;;;;;0.20;0.20;;;7.70;99.90;;;;;;5074467;28;20192;-80
2021/04/28 04:41:31;;;;;;;0.10;0.10;;;7.80;99.90;;;;;;5073556;28;20772;-80
2021/04/28 04:43:57;;;;;;;2.67;1.17;;;7.90;99.90;;;;;;5073466;28;20194;-80
2021/04/28 04:46:23;;;;;;;0.30;0.30;;;8.00;99.90;;;;;;5078849;28;20179;-81
2021/04/28 04:48:48;;;;;;;1.27;0.50;;;8.10;99.90;;;;;;5054260;28;20714;-81
2021/04/28 04:51:14;;;;;;;0.10;0.10;;;8.20;99.90;;;;;;5060269;28;20697;-81
2021/04/28 04:53:40;;;;;;;0.20;0.20;;;8.20;99.90;;;;;;5083089;28;20184;-80
2021/04/28 04:56:06;;;;;;;0.63;0.23;;;8.30;99.90;;;;;;5067877;28;20207;-80
2021/04/28 04:58:31;;;;;;;0.40;0.40;;;8.50;99.90;;;;;;5088385;28;20540;-81
2021/04/28 05:00:57;;;;;;;0.70;0.67;;;8.60;99.90;;;;;;5081825;28;20204;-81
2021/04/28 05:03:23;;;;;;;0.87;0.73;;;8.70;99.90;;;;;;5055504;28;20678;-83
2021/04/28 05:05:48;;;;;;;0.33;0.33;;;8.80;99.90;;;;;;5067332;28;20187;-83
2021/04/28 05:08:14;;;;;;;0.37;0.10;;;8.90;99.90;;;;;;5088843;28;20211;-83
2021/04/28 05:10:41;;;;;;;0.40;0.23;;;8.90;99.90;;;;;;5074180;28;20202;-84
2021/04/28 05:13:07;;;;;;;0.43;0.43;;;9.00;99.90;;;;;;5059371;28;20183;-82
2021/04/28 05:15:32;;;;;;;0.20;0.20;;;9.10;99.90;;;;;;5061875;28;20181;-83
2021/04/28 05:17:59;;;;;;;0.67;0.67;;;9.10;99.90;;;;;;5064267;28;20198;-84
2021/04/28 05:20:25;;;;;;;0.20;0.20;;;9.20;99.90;;;;;;5071893;28;20286;-83
2021/04/28 05:22:52;;;;;;;0.33;0.33;;;9.20;99.90;;;;;;5052803;28;20222;-80
2021/04/28 05:25:18;;;;;;;0.10;0.10;;;9.10;99.90;;;;;;5076621;28;20183;-80
2021/04/28 05:27:43;;;;;;;0.47;0.47;;;9.20;99.90;;;;;;5073608;28;20185;-80
2021/04/28 05:30:10;;;;;;;0.30;0.30;;;9.20;99.90;;;;;;5058201;28;20222;-80
2021/04/28 05:32:36;;;;;;;0.20;0.20;;;9.30;99.90;;;;;;5067070;28;20196;-79
2021/04/28 05:35:02;;;;;;;0.40;0.40;;;9.30;99.90;;;;;;5053855;28;20203;-80
2021/04/28 05:37:28;;;;;;;0.30;0.30;;;9.40;99.90;;;;;;5060702;28;20652;-80
2021/04/28 05:39:53;;;;;;;0.40;0.33;;;9.50;99.90;;;;;;5058574;28;20204;-81
2021/04/28 05:42:19;;;;;;;0.30;0.23;;;9.50;99.90;;;;;;5061726;28;20183;-82
2021/04/28 05:44:46;;;;;;;0.10;0.10;;;9.70;99.90;;;;;;5062443;28;20245;-82
2021/04/28 05:47:13;;;;;;;1.20;0.27;;;9.80;99.90;;;;;;5082303;28;20189;-83
2021/04/28 05:49:39;;;;;;;0.20;0.20;;;9.90;99.90;;;;;;5081102;28;20672;-82
2021/04/28 05:52:05;;;;;;;0.60;0.50;;;9.90;99.90;;;;;;5084206;28;20199;-81
2021/04/28 05:54:31;;;;;;;0.10;0.10;;;10.20;99.90;;;;;;5066489;28;20184;-82
2021/04/28 05:56:57;;;;;;;0.67;0.40;;;10.30;99.90;;;;;;5075949;28;20191;-82
2021/04/28 05:59:23;;;;;;;0.33;0.33;;;10.50;99.90;;;;;;5076324;28;20555;-82
2021/04/28 06:01:49;;;;;;;0.10;0.10;;;10.50;99.90;;;;;;5095208;28;20194;-83
2021/04/28 06:04:15;;;;;;;0.20;0.20;;;10.80;99.90;;;;;;5081627;28;20274;-82
2021/04/28 06:06:41;;;;;;;0.20;0.20;;;11.00;99.90;;;;;;5072825;28;20199;-82
2021/04/28 06:09:07;;;;;;;0.20;0.20;;;11.10;99.90;;;;;;5082859;28;20207;-82
2021/04/28 06:11:32;;;;;;;0.30;0.30;;;11.30;99.90;;;;;;5097107;28;20199;-82
2021/04/28 06:13:58;;;;;;;0.30;0.30;;;11.40;99.90;;;;;;5101596;28;20196;-82
2021/04/28 06:16:24;;;;;;;0.10;0.10;;;11.50;99.90;;;;;;5086095;28;20183;-82
2021/04/28 06:18:50;;;;;;;0.30;0.30;;;11.60;99.90;;;;;;5100420;28;20229;-83
2021/04/28 06:21:16;;;;;;;0.50;0.50;;;11.80;99.90;;;;;;5089764;28;20199;-83
2021/04/28 06:23:42;;;;;;;0.40;0.33;;;11.90;99.90;;;;;;5095908;28;20233;-82
2021/04/28 06:26:07;;;;;;;0.47;0.47;;;12.10;99.90;;;;;;5083605;28;20177;-82
2021/04/28 06:28:33;;;;;;;0.20;0.20;;;12.20;99.90;;;;;;5077423;28;20308;-83
2021/04/28 06:30:59;;;;;;;0.40;0.40;;;12.30;99.90;;;;;;5080931;28;20233;-82
2021/04/28 06:33:25;;;;;;;1.13;0.33;;;12.50;99.90;;;;;;5098273;28;20199;-81
2021/04/28 06:35:50;;;;;;;0.60;0.20;;;12.60;99.90;;;;;;5078344;28;20181;-83
2021/04/28 06:38:16;;;;;;;0.33;0.20;;;12.80;99.90;;;;;;5068947;28;20221;-81
2021/04/28 06:40:42;;;;;;;0.30;0.30;;;13.00;99.90;;;;;;5074842;28;20201;-80
2021/04/28 06:43:08;;;;;;;0.20;0.20;;;13.10;99.90;;;;;;5083711;28;20225;-79
2021/04/28 06:45:36;;;;;;;0.30;0.20;;;13.30;99.90;;;;;;5062718;28;20188;-78
2021/04/28 06:48:06;;;;;;;0.33;0.30;;;13.30;99.90;;;;;;5075478;28;20261;-80
2021/04/28 06:50:32;;;;;;;0.40;0.40;;;13.50;99.90;;;;;;5092039;28;20214;-79
2021/04/28 06:52:59;;;;;;;0.83;0.60;;;13.70;99.90;;;;;;5055807;28;20190;-79
2021/04/28 06:55:25;;;;;;;0.40;0.40;;;13.70;99.90;;;;;;5060128;28;20207;-79
2021/04/28 06:57:54;;;;;;;2.70;1.17;;;13.80;99.90;;;;;;5055908;28;20559;-80
2021/04/28 07:00:21;;;;;;;1.27;1.17;;;13.50;99.90;;;;;;5067027;28;20689;-80
2021/04/28 07:02:46;;;;;;;0.77;0.77;;;13.40;99.90;;;;;;5065436;28;20182;-80
2021/04/28 07:05:13;;;;;;;0.63;0.63;;;13.50;99.90;;;;;;5073981;28;20221;-79
2021/04/28 07:07:39;;;;;;;0.50;0.50;;;13.70;99.90;;;;;;5083193;28;20679;-80
2021/04/28 07:10:06;;;;;;;2.27;1.10;;;13.20;99.90;;;;;;5093119;28;20426;-79
2021/04/28 07:12:32;;;;;;;0.80;0.80;;;13.30;99.90;;;;;;5072570;28;20181;-80
2021/04/28 07:14:57;;;;;;;0.67;0.50;;;13.50;99.90;;;;;;5082188;28;20252;-80
2021/04/28 07:17:23;;;;;;;0.93;0.93;;;13.30;99.90;;;;;;5069689;28;20687;-80
2021/04/28 07:19:49;;;;;;;0.67;0.60;;;13.40;99.90;;;;;;5077659;28;20209;-80
2021/04/28 07:22:14;;;;;;;0.40;0.40;;;13.20;99.90;;;;;;5057221;28;20221;-79
2021/04/28 07:24:40;;;;;;;1.47;0.60;;;13.50;99.90;;;;;;5058394;28;20266;-80
2021/04/28 07:27:05;;;;;;;0.60;0.60;;;13.60;99.90;;;;;;5082841;28;20201;-80
2021/04/28 07:29:32;;;;;;;0.30;0.30;;;13.50;99.90;;;;;;5061347;28;20224;-80
2021/04/28 07:32:01;;;;;;;3.70;0.90;;;13.90;99.90;;;;;;5054133;28;20192;-85
2021/04/28 07:34:27;;;;;;;1.33;0.93;;;14.10;99.90;;;;;;5073630;28;20206;-78
2021/04/28 07:36:53;;;;;;;0.63;0.53;;;13.80;99.90;;;;;;5079608;28;20198;-80
2021/04/28 07:39:18;;;;;;;0.93;0.83;;;13.60;99.90;;;;;;5068292;28;20186;-80
2021/04/28 07:41:44;;;;;;;1.00;0.77;;;14.00;99.90;;;;;;5066781;28;20234;-80
2021/04/28 07:44:10;;;;;;;1.50;0.87;;;14.30;99.90;;;;;;5062484;28;20190;-80
2021/04/28 07:46:36;;;;;;;0.43;0.43;;;14.20;99.90;;;;;;5074207;28;20190;-79
2021/04/28 07:49:05;;;;;;;1.00;0.90;;;13.90;99.90;;;;;;5082351;28;20208;-80
2021/04/28 07:51:35;;;;;;;2.00;1.10;;;13.80;99.90;;;;;;5075287;28;20270;-80
2021/04/28 07:54:01;;;;;;;1.40;0.77;;;14.10;99.90;;;;;;5063377;28;20186;-79
2021/04/28 07:56:27;;;;;;;0.70;0.70;;;14.30;99.90;;;;;;5062375;28;20840;-80
2021/04/28 07:58:53;;;;;;;0.63;0.60;;;14.60;99.90;;;;;;5063641;28;20177;-78
2021/04/28 08:01:20;;;;;;;1.27;0.73;;;14.60;99.90;;;;;;5086792;28;20690;-79
2021/04/28 08:03:46;;;;;;;0.63;0.50;;;15.00;99.90;;;;;;5078983;28;20191;-80
2021/04/28 08:06:11;;;;;;;1.00;0.60;;;14.90;99.90;;;;;;5075570;28;20195;-80
2021/04/28 08:08:37;;;;;;;0.97;0.70;;;14.60;99.90;;;;;;5073763;28;20782;-80
2021/04/28 08:11:03;;;;;;;0.80;0.80;;;14.50;99.90;;;;;;5069796;28;20211;-79
2021/04/28 08:13:30;;;;;;;1.13;1.07;;;14.60;99.90;;;;;;5094906;28;20176;-79
2021/04/28 08:15:56;;;;;;;1.13;0.30;;;14.80;99.90;;;;;;5079828;28;20187;-80
2021/04/28 08:18:22;;;;;;;0.60;0.60;;;15.10;99.90;;;;;;5083854;28;20720;-80
2021/04/28 08:20:48;;;;;;;0.60;0.60;;;15.00;99.90;;;;;;5080092;28;20199;-80
2021/04/28 08:23:14;;;;;;;0.80;0.47;;;15.20;99.90;;;;;;5064186;28;20208;-80
2021/04/28 08:25:40;;;;;;;4.27;0.90;;;15.40;99.90;;;;;;5065842;28;20671;-80
2021/04/28 08:28:05;;;;;;;0.83;0.83;;;15.40;99.90;;;;;;5090457;28;20219;-80
2021/04/28 08:30:31;;;;;;;0.70;0.70;;;15.70;99.90;;;;;;5074614;28;20765;-79
2021/04/28 08:32:57;;;;;;;3.60;0.80;;;14.90;99.90;;;;;;5065416;28;20189;-78
2021/04/28 08:35:23;;;;;;;0.90;0.87;;;14.90;99.90;;;;;;5061983;28;20194;-79
2021/04/28 08:37:49;;;;;;;1.10;1.00;;;15.10;99.90;;;;;;5069517;28;20184;-80
2021/04/28 08:40:16;;;;;;;2.77;1.43;;;15.60;99.90;;;;;;5059644;28;20751;-80
2021/04/28 08:42:42;;;;;;;1.23;1.13;;;15.50;99.90;;;;;;5075873;28;20181;-79
2021/04/28 08:45:10;;;;;;;0.53;0.53;;;15.90;99.90;;;;;;5079966;28;20191;-80
2021/04/28 08:47:35;;;;;;;2.90;0.90;;;16.20;99.90;;;;;;5069070;28;20198;-80
2021/04/28 08:50:02;;;;;;;1.63;0.90;;;16.40;99.90;;;;;;5083416;28;20216;-78
2021/04/28 08:52:28;;;;;;;1.50;1.40;;;16.70;99.90;;;;;;5087417;28;20193;-80
2021/04/28 08:54:54;;;;;;;0.70;0.70;;;16.70;99.90;;;;;;5061560;28;20640;-80
2021/04/28 08:57:19;;;;;;;2.30;0.67;;;16.90;99.90;;;;;;5070114;28;20210;-79
2021/04/28 08:59:45;;;;;;;0.57;0.57;;;17.10;99.90;;;;;;5064305;28;20216;-80
2021/04/28 09:02:12;;;;;;;1.60;0.80;;;17.20;99.90;;;;;;5065955;28;20179;-80
2021/04/28 09:04:38;;;;;;;1.17;1.17;;;17.50;99.90;;;;;;5065445;28;20184;-80
2021/04/28 09:07:03;;;;;;;1.57;1.03;;;17.70;99.90;;;;;;5088939;28;20197;-79
2021/04/28 09:09:29;;;;;;;1.43;0.73;;;17.60;99.90;;;;;;5055067;28;20258;-80
2021/04/28 09:11:55;;;;;;;1.97;1.70;;;17.70;99.90;;;;;;5055202;28;20189;-80
2021/04/28 09:14:24;;;;;;;1.00;1.00;;;17.90;99.90;;;;;;5073922;28;20257;-80
2021/04/28 09:16:52;;;;;;;0.50;0.50;;;17.60;99.90;;;;;;5079695;28;20555;-79
2021/04/28 09:19:41;;;;;;;1.03;1.03;;;17.80;99.90;;;;;;5089349;28;20215;-79
2021/04/28 09:22:10;;;;;;;0.90;0.80;;;17.70;99.90;;;;;;5055283;28;20196;-79
2021/04/28 09:24:45;;;;;;;2.73;1.10;;;17.70;99.90;;;;;;5078577;28;20185;-80
2021/04/28 09:27:35;;;;;;;2.40;1.03;;;17.70;99.90;;;;;;5053209;28;20207;-82
2021/04/28 09:30:05;;;;;;;0.97;0.97;;;17.80;99.90;;;;;;5058188;28;20208;-79
2021/04/28 09:32:32;;;;;;;0.57;0.57;;;17.90;99.90;;;;;;5068799;28;20277;-79
2021/04/28 09:35:19;;;;;;;1.43;0.90;;;17.70;99.90;;;;;;5084849;28;20180;-80
2021/04/28 09:37:54;;;;;;;1.07;0.67;;;18.10;99.90;;;;;;5056573;28;20181;-80
2021/04/28 09:40:21;;;;;;;1.60;0.90;;;18.40;99.90;;;;;;5072018;28;20712;-80
2021/04/28 09:42:56;;;;;;;1.63;1.53;;;18.10;99.90;;;;;;5057462;28;20275;-80
2021/04/28 09:45:44;;;;;;;0.53;0.53;;;17.80;99.90;;;;;;5068605;28;20176;-81
2021/04/28 09:48:17;;;;;;;0.43;0.43;;;18.00;99.90;;;;;;5077783;28;20189;-80
2021/04/28 09:50:43;;;;;;;1.40;0.83;;;18.30;99.90;;;;;;5057137;28;20208;-80
2021/04/28 09:53:08;;;;;;;0.70;0.70;;;18.10;99.90;;;;;;5063478;28;20230;-80
2021/04/28 09:55:47;;;;;;;1.97;1.43;;;18.50;99.90;;;;;;5078463;28;20577;-80
2021/04/28 09:58:13;;;;;;;0.33;0.33;;;18.90;99.90;;;;;;5062212;28;20218;-81
2021/04/28 10:00:40;;;;;;;1.20;1.00;;;19.20;99.90;;;;;;5085401;28;20273;-80
2021/04/28 10:03:10;;;;;;;1.53;0.83;;;18.70;99.90;;;;;;5061951;28;20238;-79
2021/04/28 10:05:41;;;;;;;3.33;2.00;;;18.90;99.90;;;;;;5060665;28;20188;-80
2021/04/28 10:08:21;;;;;;;1.37;1.27;;;19.10;99.90;;;;;;5067235;28;20732;-80
2021/04/28 10:10:48;;;;;;;0.97;0.97;;;18.80;99.90;;;;;;5076240;28;20610;-79
2021/04/28 10:13:15;;;;;;;0.97;0.83;;;19.20;99.90;;;;;;5065362;28;20185;-79
2021/04/28 10:15:43;;;;;;;1.17;0.87;;;19.50;99.90;;;;;;5086770;28;20184;-80
2021/04/28 10:18:11;;;;;;;1.33;1.30;;;19.70;99.90;;;;;;5078475;28;20181;-80
2021/04/28 10:20:41;;;;;;;1.57;1.40;;;19.80;99.90;;;;;;5060436;28;20691;-80
2021/04/28 10:23:12;;;;;;;2.60;2.10;;;19.30;99.90;;;;;;5072263;28;20189;-80
2021/04/28 10:25:40;;;;;;;1.97;0.70;;;19.40;99.90;;;;;;5074122;28;20187;-80
2021/04/28 10:28:09;;;;;;;0.77;0.77;;;19.70;99.90;;;;;;5063713;28;20653;-80
2021/04/28 10:30:36;;;;;;;0.73;0.73;;;19.80;99.90;;;;;;5073777;28;20253;-80
2021/04/28 10:33:05;;;;;;;2.13;0.93;;;19.90;99.90;;;;;;5078396;28;20177;-81
2021/04/28 10:35:32;;;;;;;1.33;0.80;;;20.00;99.90;;;;;;5056031;28;20671;-80
2021/04/28 10:37:59;;;;;;;2.47;1.17;;;19.90;99.90;;;;;;5066821;28;20656;-81
2021/04/28 10:40:25;;;;;;;1.37;1.07;;;20.20;99.90;;;;;;5076096;28;20589;-80
2021/04/28 10:42:52;;;;;;;3.03;1.40;;;20.00;99.90;;;;;;5066876;28;20734;-80
2021/04/28 10:45:24;;;;;;;1.50;1.40;;;19.00;99.90;;;;;;5068927;28;20273;-80
2021/04/28 10:47:51;;;;;;;2.10;1.47;;;19.20;99.90;;;;;;5067616;28;20178;-80
2021/04/28 10:50:47;;;;;;;1.17;0.80;;;19.40;99.90;;;;;;5066627;28;20247;-81
2021/04/28 10:53:13;;;;;;;4.30;2.50;;;19.50;99.90;;;;;;5038883;28;20196;-79
2021/04/28 10:55:49;;;;;;;2.20;1.77;;;19.20;99.90;;;;;;5061200;28;20191;-80
2021/04/28 10:58:28;;;;;;;1.27;0.93;;;18.90;99.90;;;;;;5066902;28;20189;-79
2021/04/28 11:01:04;;;;;;;0.93;0.87;;;19.30;99.90;;;;;;5064644;28;20200;-81
2021/04/28 11:03:52;;;;;;;1.23;1.13;;;19.20;99.90;;;;;;5067673;28;20176;-80
2021/04/28 11:08:56;;;;;;;2.77;1.70;;;19.90;99.90;;;;;;5090857;28;20235;-80
2021/04/28 11:11:49;;;;;;;1.70;1.60;;;19.40;99.90;;;;;;5080295;28;20201;-79
2021/04/28 11:14:16;;;;;;;1.37;1.03;;;19.40;99.90;;;;;;5074148;28;20219;-81
2021/04/28 11:16:42;;;;;;;1.70;1.07;;;19.90;99.90;;;;;;5077626;28;20613;-80
2021/04/28 11:19:32;;;;;;;1.13;0.87;;;20.30;99.90;;;;;;5085193;28;20246;-79
2021/04/28 11:22:12;;;;;;;1.20;1.20;;;20.10;99.90;;;;;;5095085;28;20235;-80
2021/04/28 11:25:11;;;;;;;1.33;0.90;;;20.40;99.90;;;;;;5096843;28;20727;-79
2021/04/28 11:27:59;;;;;;;1.70;0.90;;;20.70;99.90;;;;;;5100025;28;20181;-80
2021/04/28 11:30:38;;;;;;;2.00;0.80;;;20.70;99.90;;;;;;5090243;28;20208;-79
2021/04/28 11:33:15;;;;;;;2.43;1.00;;;21.00;99.90;;;;;;5095603;28;20211;-80
2021/04/28 11:35:43;;;;;;;1.23;1.13;;;21.20;99.90;;;;;;5083384;28;20659;-80
2021/04/28 11:38:17;;;;;;;2.03;1.53;;;21.00;99.90;;;;;;5091508;28;20175;-80
2021/04/28 11:40:52;;;;;;;2.20;1.97;;;20.70;99.90;;;;;;5095260;28;20198;-79
2021/04/28 11:43:29;;;;;;;1.53;1.43;;;20.60;99.90;;;;;;5078710;28;20951;-80
2021/04/28 11:46:02;;;;;;;2.73;2.03;;;20.90;99.90;;;;;;5093680;28;20176;-80
2021/04/28 11:48:28;;;;;;;2.03;1.17;;;20.40;99.90;;;;;;5099323;28;20195;-80
2021/04/28 11:50:58;;;;;;;2.03;1.40;;;20.80;99.90;;;;;;5077326;28;20231;-80
2021/04/28 11:53:26;;;;;;;4.83;2.33;;;20.90;99.90;;;;;;5073970;28;20211;-81
2021/04/28 11:55:51;;;;;;;2.73;1.30;;;21.20;99.90;;;;;;5066296;28;20657;-80
2021/04/28 11:58:26;;;;;;;3.60;1.50;;;21.30;99.90;;;;;;5069516;28;20310;-80
2021/04/28 12:01:13;;;;;;;1.50;1.13;;;21.60;99.90;;;;;;5075595;28;20196;-80
2021/04/28 12:04:00;;;;;;;2.63;2.07;;;21.90;99.90;;;;;;5073576;28;20177;-80
2021/04/28 12:06:30;;;;;;;5.20;1.27;;;22.10;99.90;;;;;;5071590;28;20181;-80
2021/04/28 12:09:35;;;;;;;0.67;0.67;;;22.10;99.90;;;;;;5075179;28;20300;-80
2021/04/28 12:12:18;;;;;;;1.73;0.90;;;22.20;99.90;;;;;;5039540;28;20192;-81
2021/04/28 12:14:48;;;;;;;2.30;1.93;;;22.00;99.90;;;;;;5066427;28;20634;-80
2021/04/28 12:17:19;;;;;;;1.03;0.93;;;21.70;99.90;;;;;;5079221;28;20176;-81
2021/04/28 12:19:47;;;;;;;0.70;0.60;;;21.90;99.90;;;;;;5069801;28;20822;-80
2021/04/28 12:22:13;;;;;;;2.53;2.17;;;22.20;99.90;;;;;;5061465;28;20181;-81
2021/04/28 12:24:51;;;;;;;3.37;2.17;;;21.50;99.90;;;;;;5086667;28;20229;-81
2021/04/28 12:27:34;;;;;;;1.77;1.67;;;21.10;99.90;;;;;;5072671;28;20216;-80
2021/04/28 12:30:05;;;;;;;1.60;1.10;;;21.50;99.90;;;;;;5054124;28;20213;-80
2021/04/28 12:32:35;;;;;;;1.87;1.43;;;21.90;99.90;;;;;;5064065;28;20176;-80
2021/04/28 12:35:11;;;;;;;3.20;1.73;;;22.20;99.90;;;;;;5073971;28;20185;-81
2021/04/28 12:37:37;;;;;;;2.20;1.50;;;22.20;99.90;;;;;;5075627;28;20664;-83
2021/04/28 12:40:10;;;;;;;3.73;1.63;;;22.30;99.90;;;;;;5053812;28;20292;-81
2021/04/28 12:42:38;;;;;;;0.97;0.93;;;22.50;99.90;;;;;;5068745;28;20186;-81
2021/04/28 12:45:10;;;;;;;3.53;1.57;;;22.60;99.20;;;;;;5075797;28;20616;-81
2021/04/28 12:47:36;;;;;;;1.03;0.90;;;22.40;98.70;;;;;;5080711;28;20181;-81
2021/04/28 12:50:12;;;;;;;2.80;1.67;;;22.60;99.50;;;;;;5061226;28;20960;-81
2021/04/28 12:52:41;;;;;;;4.53;1.30;;;22.50;98.80;;;;;;5091470;28;20253;-81
2021/04/28 12:55:34;;;;;;;0.93;0.93;;;22.40;98.90;;;;;;5059581;28;20182;-81
2021/04/28 12:58:05;;;;;;;0.93;0.93;;;22.60;98.90;;;;;;5083658;28;20263;-81